createdAt,value
2023-03-11T00:00:28.153Z,13.88
2023-03-11T00:02:59.387Z,13.71
2023-03-11T00:05:38.958Z,13.72
2023-03-11T00:08:08.093Z,13.47
2023-03-11T00:10:40.182Z,13.73
2023-03-11T00:13:10.314Z,13.74
2023-03-11T00:15:41.620Z,13.60
2023-03-11T00:18:09.381Z,13.61
2023-03-11T00:20:42.218Z,13.64
2023-03-11T00:23:11.664Z,13.50
2023-03-11T00:25:44.261Z,13.72
2023-03-11T00:28:15.360Z,13.67
2023-03-11T00:30:44.313Z,13.74
2023-03-11T00:33:14.833Z,13.60
2023-03-11T00:35:43.311Z,13.73
2023-03-11T00:38:15.719Z,13.69
2023-03-11T00:40:45.870Z,13.63
2023-03-11T00:43:15.288Z,13.56
2023-03-11T00:45:43.132Z,13.49
2023-03-11T00:48:12.598Z,13.66
2023-03-11T00:50:41.001Z,13.69
2023-03-11T00:53:08.846Z,13.58
2023-03-11T00:55:36.739Z,13.44
2023-03-11T00:58:10.057Z,13.44
2023-03-11T01:00:49.654Z,13.52
2023-03-11T01:03:17.241Z,13.57
2023-03-11T01:05:46.146Z,13.32
2023-03-11T01:08:13.746Z,13.25
2023-03-11T01:10:41.309Z,13.30
2023-03-11T01:13:08.808Z,13.36
2023-03-11T01:15:47.556Z,13.10
2023-03-11T01:18:16.105Z,13.21
2023-03-11T01:20:44.087Z,13.04
2023-03-11T01:23:12.979Z,13.18
2023-03-11T01:25:40.546Z,13.07
2023-03-11T01:28:08.677Z,13.03
2023-03-11T01:30:38.654Z,13.03
2023-03-11T01:33:07.666Z,12.97
2023-03-11T01:35:35.746Z,12.95
2023-03-11T01:38:03.410Z,13.03
2023-03-11T01:40:35.970Z,13.03
2023-03-11T01:43:28.282Z,12.78
2023-03-11T01:45:56.349Z,12.82
2023-03-11T01:48:26.691Z,12.50
2023-03-11T01:50:57.484Z,12.49
2023-03-11T01:53:27.650Z,12.18
2023-03-11T01:55:55.893Z,12.40
2023-03-11T01:58:34.738Z,12.46
2023-03-11T02:01:03.462Z,12.55
2023-03-11T02:03:34.793Z,12.61
2023-03-11T02:06:06.279Z,12.62
2023-03-11T02:08:37.065Z,12.49
2023-03-11T02:11:10.193Z,12.52
2023-03-11T02:13:41.067Z,12.37
2023-03-11T02:16:09.126Z,12.44
2023-03-11T02:18:37.571Z,12.21
2023-03-11T02:21:22.722Z,12.47
2023-03-11T02:24:15.278Z,12.33
2023-03-11T02:26:55.024Z,12.42
2023-03-11T02:29:25.430Z,12.11
2023-03-11T02:31:58.705Z,12.06
2023-03-11T02:34:30.493Z,12.07
2023-03-11T02:36:59.242Z,12.02
2023-03-11T02:39:32.471Z,11.72
2023-03-11T02:42:04.890Z,11.91
2023-03-11T02:44:33.552Z,11.90
2023-03-11T02:47:04.284Z,11.99
2023-03-11T02:49:32.966Z,11.78
2023-03-11T02:52:00.629Z,11.60
2023-03-11T02:54:29.838Z,11.96
2023-03-11T02:56:58.406Z,11.85
2023-03-11T02:59:28.018Z,11.68
2023-03-11T03:01:56.453Z,11.82
2023-03-11T03:04:24.180Z,11.82
2023-03-11T03:06:51.797Z,11.69
2023-03-11T03:09:26.146Z,11.71
2023-03-11T03:11:53.690Z,11.96
2023-03-11T03:14:21.346Z,11.77
2023-03-11T03:16:49.808Z,11.91
2023-03-11T03:19:19.565Z,12.00
2023-03-11T03:21:49.533Z,11.94
2023-03-11T03:24:17.576Z,11.88
2023-03-11T03:26:45.231Z,11.82
2023-03-11T03:29:13.000Z,11.66
2023-03-11T03:31:45.398Z,11.66
2023-03-11T03:34:13.562Z,11.76
2023-03-11T03:36:41.315Z,11.79
2023-03-11T03:39:11.437Z,11.78
2023-03-11T03:41:38.957Z,11.63
2023-03-11T03:44:08.445Z,11.35
2023-03-11T03:46:38.539Z,11.48
2023-03-11T03:49:08.147Z,11.61
2023-03-11T03:51:38.256Z,11.76
2023-03-11T03:54:13.283Z,11.66
2023-03-11T03:56:40.956Z,11.73
2023-03-11T03:59:08.707Z,11.72
2023-03-11T04:01:41.455Z,11.59
2023-03-11T04:04:11.860Z,11.73
2023-03-11T04:06:40.760Z,11.68
2023-03-11T04:09:12.287Z,11.51
2023-03-11T04:11:39.904Z,11.36
2023-03-11T04:14:09.885Z,11.43
2023-03-11T04:16:43.448Z,11.42
2023-03-11T04:19:12.925Z,11.57
2023-03-11T04:21:40.796Z,11.51
2023-03-11T04:24:11.808Z,11.34
2023-03-11T04:26:40.424Z,11.08
2023-03-11T04:29:12.417Z,11.11
2023-03-11T04:31:43.482Z,11.16
2023-03-11T04:34:11.015Z,10.98
2023-03-11T04:36:39.733Z,10.93
2023-03-11T04:39:08.443Z,11.21
2023-03-11T04:41:41.403Z,11.26
2023-03-11T04:44:11.080Z,11.02
2023-03-11T04:46:39.013Z,10.94
2023-03-11T04:49:09.080Z,11.21
2023-03-11T04:51:37.060Z,11.23
2023-03-11T04:54:05.010Z,11.35
2023-03-11T04:56:32.829Z,11.48
2023-03-11T04:59:03.748Z,11.55
2023-03-11T05:01:33.216Z,11.60
2023-03-11T05:04:06.003Z,11.55
2023-03-11T05:06:33.861Z,11.16
2023-03-11T05:09:04.816Z,11.09
2023-03-11T05:11:35.766Z,11.41
2023-03-11T05:14:03.893Z,11.51
2023-03-11T05:16:31.430Z,11.47
2023-03-11T05:18:58.938Z,11.28
2023-03-11T05:21:26.415Z,10.97
2023-03-11T05:23:54.077Z,11.24
2023-03-11T05:26:21.562Z,11.49
2023-03-11T05:28:48.983Z,11.54
2023-03-11T05:31:16.585Z,11.42
2023-03-11T05:33:44.287Z,11.16
2023-03-11T05:36:13.834Z,11.32
2023-03-11T05:38:44.090Z,11.35
2023-03-11T05:41:12.040Z,11.47
2023-03-11T05:43:41.886Z,11.49
2023-03-11T05:46:10.417Z,11.30
2023-03-11T05:48:38.947Z,11.39
2023-03-11T05:51:11.679Z,11.46
2023-03-11T05:53:49.647Z,11.13
2023-03-11T05:56:23.735Z,10.58
2023-03-11T05:58:52.223Z,10.89
2023-03-11T06:01:20.886Z,11.13
2023-03-11T06:03:49.341Z,11.16
2023-03-11T06:06:17.836Z,11.39
2023-03-11T06:08:49.857Z,11.47
2023-03-11T06:11:19.046Z,11.21
2023-03-11T06:13:47.174Z,10.85
2023-03-11T06:16:15.115Z,10.98
2023-03-11T06:18:42.915Z,10.87
2023-03-11T06:21:17.324Z,11.33
2023-03-11T06:23:45.017Z,11.47
2023-03-11T06:26:14.847Z,11.46
2023-03-11T06:28:45.277Z,11.46
2023-03-11T06:31:33.290Z,11.52
2023-03-11T06:34:06.966Z,11.22
2023-03-11T06:36:34.747Z,10.90
2023-03-11T06:39:02.284Z,11.03
2023-03-11T06:41:30.022Z,11.11
2023-03-11T06:43:59.756Z,11.47
2023-03-11T06:46:28.532Z,11.40
2023-03-11T06:48:57.667Z,10.78
2023-03-11T06:51:25.482Z,11.16
2023-03-11T06:53:54.089Z,11.40
2023-03-11T06:56:23.838Z,11.41
2023-03-11T06:58:59.401Z,11.52
2023-03-11T07:01:31.296Z,11.55
2023-03-11T07:04:00.823Z,11.69
2023-03-11T07:06:34.260Z,11.81
2023-03-11T07:09:13.597Z,12.07
2023-03-11T07:11:43.902Z,12.01
2023-03-11T07:14:16.528Z,12.18
2023-03-11T07:16:47.980Z,12.42
2023-03-11T07:19:26.838Z,12.30
2023-03-11T07:21:57.995Z,12.69
2023-03-11T07:24:25.446Z,12.71
2023-03-11T07:26:52.791Z,12.84
2023-03-11T07:29:20.981Z,12.68
2023-03-11T07:31:49.311Z,12.82
2023-03-11T07:34:19.698Z,13.21
2023-03-11T07:36:47.233Z,13.60
2023-03-11T07:39:17.762Z,14.29
2023-03-11T07:41:45.601Z,15.38
2023-03-11T07:44:16.142Z,16.89
2023-03-11T07:46:44.531Z,17.37
2023-03-11T07:49:12.323Z,17.27
2023-03-11T07:51:44.022Z,17.08
2023-03-11T07:54:12.766Z,16.84
2023-03-11T07:56:40.392Z,16.32
2023-03-11T07:59:08.053Z,16.03
2023-03-11T08:01:41.256Z,14.98
2023-03-11T08:04:14.355Z,15.32
2023-03-11T08:06:44.780Z,15.49
2023-03-11T08:09:13.625Z,15.16
2023-03-11T08:11:41.723Z,15.34
2023-03-11T08:14:09.719Z,15.63
2023-03-11T08:16:40.164Z,15.75
2023-03-11T08:19:07.797Z,15.70
2023-03-11T08:21:35.279Z,15.94
2023-03-11T08:24:04.524Z,16.04
2023-03-11T08:26:36.356Z,15.86
2023-03-11T08:29:04.406Z,16.07
2023-03-11T08:31:34.009Z,16.19
2023-03-11T08:34:04.846Z,15.99
2023-03-11T08:36:33.094Z,14.62
2023-03-11T08:39:00.665Z,15.08
2023-03-11T08:41:28.685Z,15.49
2023-03-11T08:43:56.345Z,15.67
2023-03-11T08:46:27.472Z,15.48
2023-03-11T08:48:56.986Z,14.95
2023-03-11T08:51:26.367Z,15.60
2023-03-11T08:53:54.257Z,15.12
2023-03-11T08:56:23.935Z,16.36
2023-03-11T08:58:51.880Z,17.91
2023-03-11T09:01:20.346Z,19.39
2023-03-11T09:03:48.106Z,21.41
2023-03-11T09:06:17.532Z,23.43
2023-03-11T09:08:48.920Z,22.71
2023-03-11T09:11:17.824Z,21.23
2023-03-11T09:13:45.494Z,20.66
2023-03-11T09:16:14.948Z,22.82
2023-03-11T09:18:42.770Z,23.86
2023-03-11T09:21:11.448Z,22.57
2023-03-11T09:23:40.309Z,25.57
2023-03-11T09:26:08.561Z,26.37
2023-03-11T09:28:36.026Z,25.57
2023-03-11T09:31:03.591Z,22.15
2023-03-11T09:33:31.060Z,22.12
2023-03-11T09:36:02.033Z,23.66
2023-03-11T09:38:32.723Z,24.23
2023-03-11T09:41:10.680Z,21.94
2023-03-11T09:43:56.412Z,21.92
2023-03-11T09:46:45.227Z,22.89
2023-03-11T09:49:40.771Z,22.44
2023-03-11T09:52:16.138Z,21.70
2023-03-11T09:54:54.891Z,22.84
2023-03-11T09:57:26.798Z,21.52
2023-03-11T09:59:55.279Z,23.28
2023-03-11T10:02:26.836Z,22.03
2023-03-11T10:05:09.931Z,22.53
2023-03-11T10:07:41.759Z,20.74
2023-03-11T10:10:14.428Z,21.71
2023-03-11T10:13:06.969Z,19.53
2023-03-11T10:15:56.599Z,20.18
2023-03-11T10:18:39.284Z,18.61
2023-03-11T10:21:14.563Z,18.85
2023-03-11T10:24:03.350Z,19.88
2023-03-11T10:26:42.169Z,20.12
2023-03-11T10:29:30.008Z,20.30
2023-03-11T10:32:05.075Z,20.02
2023-03-11T10:34:39.525Z,19.17
2023-03-11T10:37:21.353Z,18.62
2023-03-11T10:39:49.101Z,18.26
2023-03-11T10:42:25.098Z,18.88
2023-03-11T10:44:52.731Z,19.61
2023-03-11T10:47:23.403Z,19.55
2023-03-11T10:49:52.514Z,19.76
2023-03-11T10:52:20.220Z,19.76
2023-03-11T10:54:58.702Z,19.42
2023-03-11T10:57:29.661Z,19.58
2023-03-11T11:00:00.063Z,19.62
2023-03-11T11:02:30.252Z,19.62
2023-03-11T11:05:07.748Z,19.58
2023-03-11T11:07:37.609Z,19.62
2023-03-11T11:10:14.248Z,19.86
2023-03-11T11:12:56.559Z,19.60
2023-03-11T11:15:33.016Z,20.12
2023-03-11T11:18:02.948Z,20.93
2023-03-11T11:20:31.721Z,20.36
2023-03-11T11:23:02.242Z,20.64
2023-03-11T11:25:38.948Z,19.84
2023-03-11T11:28:16.365Z,19.36
2023-03-11T11:31:02.026Z,19.69
2023-03-11T11:34:01.646Z,19.46
2023-03-11T11:36:32.556Z,19.48
2023-03-11T11:39:04.953Z,19.88
2023-03-11T11:41:36.754Z,20.32
2023-03-11T11:44:06.944Z,19.16
2023-03-11T11:46:39.810Z,19.35
2023-03-11T11:49:27.494Z,18.50
2023-03-11T11:52:14.318Z,19.86
2023-03-11T11:55:25.300Z,19.41
2023-03-11T11:57:52.823Z,19.93
2023-03-11T12:00:32.695Z,18.76
2023-03-11T12:03:36.983Z,19.81
2023-03-11T12:06:31.628Z,19.03
2023-03-11T12:09:35.377Z,19.36
2023-03-11T12:12:33.301Z,19.13
2023-03-11T12:15:03.968Z,19.18
2023-03-11T12:17:33.816Z,20.06
2023-03-11T12:20:05.819Z,20.42
2023-03-11T12:22:58.117Z,20.28
2023-03-11T12:25:32.799Z,19.57
2023-03-11T12:28:13.243Z,20.08
2023-03-11T12:30:53.405Z,19.89
2023-03-11T12:33:37.054Z,20.68
2023-03-11T12:36:06.225Z,20.53
2023-03-11T12:38:35.398Z,20.38
2023-03-11T12:41:14.661Z,19.89
2023-03-11T12:43:41.963Z,20.84
2023-03-11T12:46:14.453Z,19.78
2023-03-11T12:48:46.035Z,20.33
2023-03-11T12:51:37.657Z,19.83
2023-03-11T12:54:21.751Z,20.02
2023-03-11T12:56:56.945Z,19.80
2023-03-11T13:00:00.600Z,19.62
2023-03-11T13:02:47.556Z,19.77
2023-03-11T13:05:28.338Z,19.58
2023-03-11T13:08:01.055Z,20.15
2023-03-11T13:10:44.654Z,20.23
2023-03-11T13:13:30.488Z,19.77
2023-03-11T13:15:58.798Z,19.74
2023-03-11T13:18:28.298Z,19.50
2023-03-11T13:20:59.346Z,19.85
2023-03-11T13:23:28.335Z,20.02
2023-03-11T13:25:55.654Z,19.76
2023-03-11T13:29:05.280Z,19.88
2023-03-11T13:31:37.579Z,20.17
2023-03-11T13:34:16.125Z,20.43
2023-03-11T13:36:46.648Z,20.00
2023-03-11T13:39:37.615Z,20.38
2023-03-11T13:42:17.451Z,19.77
2023-03-11T13:44:47.417Z,19.84
2023-03-11T13:47:17.934Z,20.28
2023-03-11T13:50:03.328Z,20.58
2023-03-11T13:52:35.576Z,20.44
2023-03-11T13:55:07.634Z,20.12
2023-03-11T13:57:37.577Z,20.32
2023-03-11T14:00:17.748Z,20.35
2023-03-11T14:02:48.591Z,20.09
2023-03-11T14:05:20.229Z,20.56
2023-03-11T14:07:47.669Z,20.68
2023-03-11T14:10:24.702Z,19.97
2023-03-11T14:13:04.211Z,20.11
2023-03-11T14:15:43.914Z,20.80
2023-03-11T14:18:31.188Z,20.70
2023-03-11T14:20:59.509Z,20.67
2023-03-11T14:23:30.822Z,20.19
2023-03-11T14:26:00.427Z,20.40
2023-03-11T14:28:31.088Z,20.50
2023-03-11T14:31:00.513Z,20.02
2023-03-11T14:33:28.269Z,20.37
2023-03-11T14:36:15.705Z,20.54
2023-03-11T14:38:44.303Z,20.39
2023-03-11T14:41:15.719Z,20.21
2023-03-11T14:43:49.607Z,20.30
2023-03-11T14:46:28.725Z,20.17
2023-03-11T14:48:58.071Z,20.53
2023-03-11T14:51:33.399Z,20.07
2023-03-11T14:54:17.306Z,20.02
2023-03-11T14:56:51.248Z,20.13
2023-03-11T14:59:26.872Z,20.49
2023-03-11T15:01:59.196Z,19.84
2023-03-11T15:04:38.011Z,20.28
2023-03-11T15:07:06.071Z,20.17
2023-03-11T15:09:52.057Z,19.94
2023-03-11T15:12:34.382Z,19.94
2023-03-11T15:15:01.921Z,19.97
2023-03-11T15:17:41.342Z,20.04
2023-03-11T15:20:35.300Z,19.98
2023-03-11T15:23:07.675Z,19.87
2023-03-11T15:25:38.723Z,19.94
2023-03-11T15:28:27.544Z,19.87
2023-03-11T15:31:22.675Z,19.53
2023-03-11T15:33:53.685Z,19.68
2023-03-11T15:36:35.856Z,19.94
2023-03-11T15:39:21.555Z,20.09
2023-03-11T15:42:13.720Z,19.83
2023-03-11T15:44:51.660Z,19.19
2023-03-11T15:47:21.193Z,19.58
2023-03-11T15:49:49.196Z,19.51
2023-03-11T15:52:20.134Z,19.47
2023-03-11T15:54:55.410Z,19.34
2023-03-11T15:57:26.953Z,19.46
2023-03-11T16:00:03.742Z,19.56
2023-03-11T16:02:34.421Z,19.53
2023-03-11T16:05:01.938Z,19.48
2023-03-11T16:07:38.985Z,18.90
2023-03-11T16:10:08.382Z,19.13
2023-03-11T16:12:35.779Z,19.37
2023-03-11T16:15:04.205Z,19.24
2023-03-11T16:17:46.761Z,19.25
2023-03-11T16:20:16.379Z,19.10
2023-03-11T16:22:43.822Z,18.88
2023-03-11T16:25:20.558Z,18.74
2023-03-11T16:27:50.669Z,18.75
2023-03-11T16:30:18.964Z,18.91
2023-03-11T16:32:46.369Z,18.58
2023-03-11T16:35:14.084Z,18.41
2023-03-11T16:37:43.339Z,18.44
2023-03-11T16:40:20.390Z,18.39
2023-03-11T16:42:49.527Z,18.44
2023-03-11T16:45:18.084Z,18.59
2023-03-11T16:47:45.438Z,18.33
2023-03-11T16:50:13.203Z,18.38
2023-03-11T16:52:40.529Z,17.90
2023-03-11T16:55:08.422Z,17.99
2023-03-11T16:57:37.826Z,17.74
2023-03-11T17:00:07.039Z,17.70
2023-03-11T17:02:34.381Z,17.64
2023-03-11T17:05:01.863Z,17.88
2023-03-11T17:07:29.419Z,17.74
2023-03-11T17:09:58.114Z,17.56
2023-03-11T17:12:26.969Z,17.86
2023-03-11T17:14:54.547Z,17.72
2023-03-11T17:17:23.003Z,17.62
2023-03-11T17:19:50.371Z,17.68
2023-03-11T17:22:17.873Z,17.47
2023-03-11T17:24:45.175Z,17.47
2023-03-11T17:27:12.832Z,17.30
2023-03-11T17:29:40.223Z,17.35
2023-03-11T17:32:08.032Z,17.28
2023-03-11T17:34:35.399Z,17.11
2023-03-11T17:37:02.760Z,17.17
2023-03-11T17:39:30.174Z,17.15
2023-03-11T17:41:57.629Z,17.14
2023-03-11T17:44:24.960Z,16.77
2023-03-11T17:46:52.291Z,17.04
2023-03-11T17:49:19.692Z,16.96
2023-03-11T17:51:47.150Z,17.00
2023-03-11T17:54:14.521Z,16.97
2023-03-11T17:56:41.787Z,16.75
2023-03-11T17:59:09.146Z,16.81
2023-03-11T18:01:36.689Z,16.52
2023-03-11T18:04:04.498Z,16.65
2023-03-11T18:06:31.817Z,16.15
2023-03-11T18:08:59.359Z,16.33
2023-03-11T18:11:27.881Z,16.20
2023-03-11T18:13:55.449Z,16.31
2023-03-11T18:16:28.917Z,16.34
2023-03-11T18:18:57.115Z,16.38
2023-03-11T18:21:29.113Z,16.13
2023-03-11T18:23:58.670Z,16.05
2023-03-11T18:26:28.765Z,16.21
2023-03-11T18:28:58.003Z,16.03
2023-03-11T18:31:27.101Z,16.22
2023-03-11T18:33:59.306Z,16.21
2023-03-11T18:36:27.937Z,16.20
2023-03-11T18:38:57.057Z,16.01
2023-03-11T18:41:27.246Z,15.95
2023-03-11T18:43:57.454Z,15.88
2023-03-11T18:46:28.376Z,15.95
2023-03-11T18:48:57.619Z,15.93
2023-03-11T18:51:26.101Z,15.94
2023-03-11T18:53:53.465Z,15.90
2023-03-11T18:56:21.007Z,15.84
2023-03-11T18:58:48.452Z,15.75
2023-03-11T19:01:24.916Z,15.84
2023-03-11T19:03:55.944Z,15.74
2023-03-11T19:06:25.188Z,15.65
2023-03-11T19:08:53.265Z,15.76
2023-03-11T19:11:23.000Z,15.45
2023-03-11T19:13:51.040Z,15.54
2023-03-11T19:16:21.674Z,15.77
2023-03-11T19:18:50.202Z,15.76
2023-03-11T19:21:18.004Z,15.77
2023-03-11T19:23:45.804Z,15.37
2023-03-11T19:26:13.666Z,15.37
2023-03-11T19:28:42.004Z,15.77
2023-03-11T19:31:09.370Z,15.82
2023-03-11T19:33:36.706Z,15.48
2023-03-11T19:36:06.091Z,15.62
2023-03-11T19:38:34.151Z,15.47
2023-03-11T19:41:12.254Z,15.55
2023-03-11T19:43:40.164Z,15.58
2023-03-11T19:46:10.297Z,15.37
2023-03-11T19:48:37.695Z,15.23
2023-03-11T19:51:08.120Z,15.33
2023-03-11T19:53:36.603Z,15.21
2023-03-11T19:56:04.873Z,15.35
2023-03-11T19:58:32.315Z,15.33
2023-03-11T20:00:59.865Z,15.19
2023-03-11T20:03:27.770Z,15.12
2023-03-11T20:05:57.929Z,15.06
2023-03-11T20:08:25.988Z,15.06
2023-03-11T20:10:53.841Z,14.94
2023-03-11T20:13:22.335Z,14.99
2023-03-11T20:15:50.426Z,15.06
2023-03-11T20:18:18.319Z,14.93
2023-03-11T20:20:47.080Z,14.78
2023-03-11T20:23:14.616Z,14.69
2023-03-11T20:25:42.540Z,14.48
2023-03-11T20:28:10.685Z,14.40
2023-03-11T20:30:39.482Z,14.52
2023-03-11T20:33:07.889Z,14.59
2023-03-11T20:35:35.391Z,14.52
2023-03-11T20:38:03.229Z,14.57
2023-03-11T20:40:31.029Z,14.57
2023-03-11T20:42:58.417Z,14.15
2023-03-11T20:45:25.863Z,14.40
2023-03-11T20:47:54.040Z,14.39
2023-03-11T20:50:23.040Z,14.26
2023-03-11T20:52:50.976Z,13.98
2023-03-11T20:55:18.494Z,14.07
2023-03-11T20:57:46.692Z,14.24
2023-03-11T21:00:14.770Z,14.11
2023-03-11T21:02:43.354Z,14.25
2023-03-11T21:05:11.903Z,14.05
2023-03-11T21:07:40.056Z,13.97
2023-03-11T21:10:12.084Z,13.95
2023-03-11T21:12:39.728Z,14.25
2023-03-11T21:15:09.184Z,14.03
2023-03-11T21:17:37.896Z,13.83
2023-03-11T21:20:06.388Z,13.94
2023-03-11T21:22:33.998Z,13.97
2023-03-11T21:25:01.545Z,13.88
2023-03-11T21:27:29.011Z,13.76
2023-03-11T21:29:56.873Z,13.70
2023-03-11T21:32:25.903Z,13.82
2023-03-11T21:34:57.805Z,13.69
2023-03-11T21:37:26.256Z,13.62
2023-03-11T21:39:53.951Z,13.79
2023-03-11T21:42:21.946Z,13.67
2023-03-11T21:44:51.405Z,13.70
2023-03-11T21:47:19.883Z,13.55
2023-03-11T21:49:47.425Z,13.52
2023-03-11T21:52:14.908Z,13.77
2023-03-11T21:54:42.445Z,13.63
2023-03-11T21:57:11.331Z,13.66
2023-03-11T21:59:38.733Z,13.57
2023-03-11T22:02:06.379Z,13.52
2023-03-11T22:04:33.780Z,13.55
2023-03-11T22:07:01.160Z,13.71
2023-03-11T22:09:28.579Z,13.89
2023-03-11T22:11:56.377Z,13.78
2023-03-11T22:14:24.712Z,13.57
2023-03-11T22:16:52.276Z,13.80
2023-03-11T22:19:19.839Z,13.69
2023-03-11T22:21:52.284Z,13.57
2023-03-11T22:24:19.779Z,13.53
2023-03-11T22:26:47.082Z,13.68
2023-03-11T22:29:15.454Z,13.56
2023-03-11T22:31:42.823Z,13.54
2023-03-11T22:34:10.290Z,13.31
2023-03-11T22:36:37.692Z,13.33
2023-03-11T22:39:05.058Z,13.30
2023-03-11T22:41:32.837Z,13.36
2023-03-11T22:44:00.451Z,13.35
2023-03-11T22:46:28.156Z,13.35
2023-03-11T22:48:55.727Z,13.39
2023-03-11T22:51:23.339Z,13.35
2023-03-11T22:53:50.864Z,13.41
2023-03-11T22:56:19.750Z,13.48
2023-03-11T22:58:47.306Z,13.46
2023-03-11T23:01:16.497Z,13.36
2023-03-11T23:03:44.243Z,13.60
2023-03-11T23:06:15.027Z,13.47
2023-03-11T23:08:42.760Z,13.77
2023-03-11T23:11:12.441Z,13.63
2023-03-11T23:13:41.863Z,13.56
2023-03-11T23:16:16.563Z,13.66
2023-03-11T23:18:46.469Z,13.48
2023-03-11T23:21:22.825Z,13.55
2023-03-11T23:23:51.848Z,13.54
2023-03-11T23:26:20.306Z,13.61
2023-03-11T23:28:51.182Z,13.55
2023-03-11T23:31:20.603Z,13.59
2023-03-11T23:33:48.165Z,13.51
2023-03-11T23:36:18.368Z,13.68
2023-03-11T23:38:47.309Z,13.72
2023-03-11T23:41:18.063Z,13.57
2023-03-11T23:43:49.968Z,13.40
2023-03-11T23:46:17.555Z,13.47
2023-03-11T23:48:45.000Z,13.54
2023-03-11T23:51:12.761Z,13.56
2023-03-11T23:53:40.465Z,13.47
2023-03-11T23:56:17.155Z,13.45
2023-03-11T23:58:45.844Z,13.49
